Time,TemperatureF,DewpointF,PressureIn,WindDirection,WindDirectionDegrees,WindSpeedMPH,WindSpeedGustMPH,Humidity,HourlyPrecipIn,Conditions,Clouds,dailyrainin,SoftwareType,DateUTC
2013-06-09 00:03:00,80.0,-99.9,30.02,NE,46,8.0,10.0,-999,-99.99,,,-99.99,,2013-06-09 04:03:00,
2013-06-09 00:13:00,79.0,-99.9,30.02,NE,35,6.0,10.0,-999,-99.99,,,-99.99,,2013-06-09 04:13:00,
2013-06-09 00:23:00,79.0,-99.9,30.02,NE,42,7.0,9.0,-999,-99.99,,,-99.99,,2013-06-09 04:23:00,
2013-06-09 00:33:00,80.0,-99.9,30.03,NE,41,5.0,7.0,-999,-99.99,,,-99.99,,2013-06-09 04:33:00,
2013-06-09 00:43:00,78.0,-99.9,30.03,NE,44,6.0,8.0,-999,-99.99,,,-99.99,,2013-06-09 04:43:00,
2013-06-09 00:53:00,78.0,-99.9,30.03,NE,47,6.0,8.0,-999,-99.99,,,-99.99,,2013-06-09 04:53:00,
2013-06-09 01:02:00,78.0,-99.9,30.04,NE,46,4.0,6.0,-999,-99.99,,,-99.99,,2013-06-09 05:02:00,
2013-06-09 01:12:00,77.0,-99.9,30.04,NE,54,4.0,6.0,-999,-99.99,,,-99.99,,2013-06-09 05:12:00,
2013-06-09 01:22:00,77.0,-99.9,30.04,NE,36,4.0,6.0,-999,-99.99,,,-99.99,,2013-06-09 05:22:00,
2013-06-09 01:32:00,77.0,-99.9,30.04,ENE,67,2.0,4.0,-999,-99.99,,,-99.99,,2013-06-09 05:32:00,
2013-06-09 01:42:00,77.0,-99.9,30.05,ENE,60,3.0,4.0,-999,-99.99,,,-99.99,,2013-06-09 05:42:00,
2013-06-09 01:52:00,77.0,-99.9,30.05,East,89,1.0,2.0,-999,-99.99,,,-99.99,,2013-06-09 05:52:00,
2013-06-09 02:02:00,76.0,-99.9,30.05,NE,42,3.0,3.0,-999,-99.99,,,-99.99,,2013-06-09 06:02:00,
2013-06-09 02:12:00,76.0,-99.9,30.05,NE,44,2.0,3.0,-999,-99.99,,,-99.99,,2013-06-09 06:12:00,
2013-06-09 02:22:00,76.0,-99.9,30.05,North,349,2.0,2.0,-999,-99.99,,,-99.99,,2013-06-09 06:22:00,
2013-06-09 02:32:00,74.0,-99.9,30.06,WSW,251,5.0,6.0,-999,-99.99,,,-99.99,,2013-06-09 06:32:00,
2013-06-09 02:42:00,74.0,-99.9,30.06,WSW,246,4.0,6.0,-999,-99.99,,,-99.99,,2013-06-09 06:42:00,
2013-06-09 02:52:00,74.0,-99.9,30.07,SW,214,1.0,3.0,-999,-99.99,,,-99.99,,2013-06-09 06:52:00,
2013-06-09 03:02:00,74.0,-99.9,30.07,SSW,196,2.0,3.0,-999,-99.99,,,-99.99,,2013-06-09 07:02:00,
2013-06-09 03:12:00,74.0,-99.9,30.08,South,188,1.0,3.0,-999,-99.99,,,-99.99,,2013-06-09 07:12:00,
2013-06-09 03:22:00,74.0,-99.9,30.08,SSW,213,2.0,3.0,-999,-99.99,,,-99.99,,2013-06-09 07:22:00,
2013-06-09 03:32:00,74.0,-99.9,30.08,SSW,211,3.0,3.0,-999,-99.99,,,-99.99,,2013-06-09 07:32:00,
2013-06-09 03:42:00,74.0,-99.9,30.08,SSW,211,3.0,3.0,-999,-99.99,,,-99.99,,2013-06-09 07:42:00,
2013-06-09 03:53:00,73.0,-99.9,30.09,SW,230,3.0,4.0,-999,-99.99,,,-99.99,,2013-06-09 07:53:00,
2013-06-09 04:02:00,73.0,-99.9,30.09,SSW,202,4.0,5.0,-999,-99.99,,,-99.99,,2013-06-09 08:02:00,
2013-06-09 04:12:00,73.0,-99.9,30.09,SSW,194,2.0,4.0,-999,-99.99,,,-99.99,,2013-06-09 08:12:00,
2013-06-09 04:22:00,72.0,-99.9,30.10,SW,225,4.0,4.0,-999,-99.99,,,-99.99,,2013-06-09 08:22:00,
2013-06-09 04:32:00,72.0,-99.9,30.11,SE,139,4.0,7.0,-999,-99.99,,,-99.99,,2013-06-09 08:32:00,
2013-06-09 04:42:00,73.0,-99.9,30.11,South,187,4.0,6.0,-999,-99.99,,,-99.99,,2013-06-09 08:42:00,
2013-06-09 04:53:00,72.0,-99.9,30.11,SW,214,5.0,7.0,-999,-99.99,,,-99.99,,2013-06-09 08:53:00,
2013-06-09 05:02:00,71.0,-99.9,30.11,WSW,256,4.0,6.0,-999,-99.99,,,-99.99,,2013-06-09 09:02:00,
2013-06-09 05:12:00,71.0,-99.9,30.11,SW,233,4.0,5.0,-999,-99.99,,,-99.99,,2013-06-09 09:12:00,
2013-06-09 05:22:00,71.0,-99.9,30.10,WSW,255,4.0,5.0,-999,-99.99,,,-99.99,,2013-06-09 09:22:00,
2013-06-09 05:33:00,71.0,-99.9,30.10,West,263,9.0,11.0,-999,-99.99,,,-99.99,,2013-06-09 09:33:00,
2013-06-09 05:43:00,71.0,-99.9,30.10,WSW,239,9.0,11.0,-999,-99.99,,,-99.99,,2013-06-09 09:43:00,
2013-06-09 05:53:00,71.0,-99.9,30.10,WSW,248,8.0,11.0,-999,-99.99,,,-99.99,,2013-06-09 09:53:00,
2013-06-09 06:03:00,72.0,-99.9,30.10,SSE,159,9.0,11.0,-999,-99.99,,,-99.99,,2013-06-09 10:03:00,
2013-06-09 06:13:00,71.0,-99.9,30.09,South,184,8.0,11.0,-999,-99.99,,,-99.99,,2013-06-09 10:13:00,
2013-06-09 06:23:00,71.0,-99.9,30.09,West,265,7.0,13.0,-999,-99.99,,,-99.99,,2013-06-09 10:23:00,
2013-06-09 06:33:00,71.0,-99.9,30.09,SSW,195,4.0,7.0,-999,-99.99,,,-99.99,,2013-06-09 10:33:00,
2013-06-09 06:43:00,71.0,-99.9,30.08,SW,220,6.0,7.0,-999,-99.99,,,-99.99,,2013-06-09 10:43:00,
2013-06-09 06:52:00,71.0,-99.9,30.08,WSW,245,9.0,11.0,-999,-99.99,,,-99.99,,2013-06-09 10:52:00,
2013-06-09 07:02:00,71.0,-99.9,30.08,SW,231,5.0,8.0,-999,-99.99,,,-99.99,,2013-06-09 11:02:00,
2013-06-09 07:12:00,71.0,-99.9,30.08,WSW,241,6.0,8.0,-999,-99.99,,,-99.99,,2013-06-09 11:12:00,
2013-06-09 07:22:00,71.0,-99.9,30.07,WSW,243,9.0,11.0,-999,-99.99,,,-99.99,,2013-06-09 11:22:00,
2013-06-09 07:32:00,71.0,-99.9,30.08,SSE,167,2.0,6.0,-999,-99.99,,,-99.99,,2013-06-09 11:32:00,
2013-06-09 07:42:00,71.0,-99.9,30.07,SSE,156,2.0,6.0,-999,-99.99,,,-99.99,,2013-06-09 11:42:00,
2013-06-09 07:53:00,70.0,-99.9,30.07,SW,234,7.0,8.0,-999,-99.99,,,-99.99,,2013-06-09 11:53:00,
2013-06-09 08:03:00,70.0,-99.9,30.06,SW,231,5.0,8.0,-999,-99.99,,,-99.99,,2013-06-09 12:03:00,
2013-06-09 08:12:00,70.0,-99.9,30.06,SW,233,8.0,10.0,-999,-99.99,,,-99.99,,2013-06-09 12:12:00,
2013-06-09 08:22:00,70.0,-99.9,30.05,WSW,245,12.0,14.0,-999,-99.99,,,-99.99,,2013-06-09 12:22:00,
2013-06-09 08:32:00,70.0,-99.9,30.05,SW,234,8.0,12.0,-999,-99.99,,,-99.99,,2013-06-09 12:32:00,
2013-06-09 08:42:00,70.0,-99.9,30.05,SSW,205,6.0,8.0,-999,-99.99,,,-99.99,,2013-06-09 12:42:00,
2013-06-09 08:53:00,70.0,-99.9,30.04,WSW,249,9.0,12.0,-999,-99.99,,,-99.99,,2013-06-09 12:53:00,
2013-06-09 09:02:00,71.0,-99.9,30.04,WSW,251,9.0,13.0,-999,-99.99,,,-99.99,,2013-06-09 13:02:00,
2013-06-09 09:12:00,71.0,-99.9,30.04,WSW,248,11.0,13.0,-999,-99.99,,,-99.99,,2013-06-09 13:12:00,
2013-06-09 09:23:00,71.0,-99.9,30.04,WSW,244,12.0,13.0,-999,-99.99,,,-99.99,,2013-06-09 13:23:00,
2013-06-09 09:32:00,71.0,-99.9,30.04,WSW,239,10.0,15.0,-999,-99.99,,,-99.99,,2013-06-09 13:32:00,
2013-06-09 09:42:00,71.0,-99.9,30.04,WSW,250,6.0,11.0,-999,-99.99,,,-99.99,,2013-06-09 13:42:00,
2013-06-09 09:52:00,71.0,-99.9,30.04,SSW,210,5.0,6.0,-999,-99.99,,,-99.99,,2013-06-09 13:52:00,
2013-06-09 10:02:00,71.0,-99.9,30.04,SW,218,7.0,9.0,-999,-99.99,,,-99.99,,2013-06-09 14:02:00,
2013-06-09 10:12:00,71.0,-99.9,30.04,SW,219,7.0,9.0,-999,-99.99,,,-99.99,,2013-06-09 14:12:00,
2013-06-09 10:22:00,71.0,-99.9,30.04,SW,227,7.0,9.0,-999,-99.99,,,-99.99,,2013-06-09 14:22:00,
2013-06-09 10:32:00,71.0,-99.9,30.04,SSW,209,6.0,9.0,-999,-99.99,,,-99.99,,2013-06-09 14:32:00,
2013-06-09 10:43:00,71.0,-99.9,30.04,SSW,206,5.0,8.0,-999,-99.99,,,-99.99,,2013-06-09 14:43:00,
2013-06-09 10:52:00,71.0,-99.9,30.04,SW,228,8.0,9.0,-999,-99.99,,,-99.99,,2013-06-09 14:52:00,
2013-06-09 11:02:00,71.0,-99.9,30.04,WSW,245,9.0,10.0,-999,-99.99,,,-99.99,,2013-06-09 15:02:00,
2013-06-09 11:12:00,71.0,-99.9,30.04,WSW,243,7.0,10.0,-999,-99.99,,,-99.99,,2013-06-09 15:12:00,
2013-06-09 11:22:00,71.0,-99.9,30.04,WSW,248,9.0,12.0,-999,-99.99,,,-99.99,,2013-06-09 15:22:00,
2013-06-09 11:33:00,71.0,-99.9,30.04,SW,226,4.0,7.0,-999,-99.99,,,-99.99,,2013-06-09 15:33:00,
2013-06-09 11:44:00,71.0,-99.9,30.05,SW,218,4.0,5.0,-999,-99.99,,,-99.99,,2013-06-09 15:44:00,
2013-06-09 11:53:00,71.0,-99.9,30.05,SW,214,3.0,5.0,-999,-99.99,,,-99.99,,2013-06-09 15:53:00,
2013-06-09 12:03:00,71.0,-99.9,30.05,SW,225,5.0,5.0,-999,-99.99,,,-99.99,,2013-06-09 16:03:00,
2013-06-09 12:13:00,71.0,-99.9,30.05,SSW,210,4.0,6.0,-999,-99.99,,,-99.99,,2013-06-09 16:13:00,
2013-06-09 12:23:00,71.0,-99.9,30.06,SSW,210,5.0,6.0,-999,-99.99,,,-99.99,,2013-06-09 16:23:00,
2013-06-09 12:33:00,71.0,-99.9,30.07,SSW,196,2.0,4.0,-999,-99.99,,,-99.99,,2013-06-09 16:33:00,
2013-06-09 12:43:00,71.0,-99.9,30.07,SW,227,4.0,4.0,-999,-99.99,,,-99.99,,2013-06-09 16:43:00,
2013-06-09 12:53:00,71.0,-99.9,30.07,WSW,246,5.0,5.0,-999,-99.99,,,-99.99,,2013-06-09 16:53:00,
2013-06-09 13:03:00,72.0,-99.9,30.08,WSW,241,3.0,6.0,-999,-99.99,,,-99.99,,2013-06-09 17:03:00,
2013-06-09 13:12:00,72.0,-99.9,30.08,WSW,241,3.0,4.0,-999,-99.99,,,-99.99,,2013-06-09 17:12:00,
2013-06-09 13:22:00,72.0,-99.9,30.08,WSW,239,3.0,4.0,-999,-99.99,,,-99.99,,2013-06-09 17:22:00,
2013-06-09 13:32:00,75.0,-99.9,30.09,SSE,149,-999.0,1.0,-999,-99.99,,,-99.99,,2013-06-09 17:32:00,
2013-06-09 13:42:00,75.0,-99.9,30.09,SSE,149,-999.0,1.0,-999,-99.99,,,-99.99,,2013-06-09 17:42:00,
2013-06-09 13:52:00,75.0,-99.9,30.09,North,-999,-999.0,-999.0,-999,-99.99,,,-99.99,,2013-06-09 17:52:00,
2013-06-09 14:03:00,75.0,-99.9,30.09,WNW,296,2.0,2.0,-999,-99.99,,,-99.99,,2013-06-09 18:03:00,
2013-06-09 14:12:00,76.0,-99.9,30.09,WNW,294,2.0,4.0,-999,-99.99,,,-99.99,,2013-06-09 18:12:00,
2013-06-09 14:22:00,76.0,-99.9,30.09,West,276,0.0,3.0,-999,-99.99,,,-99.99,,2013-06-09 18:22:00,
2013-06-09 14:33:00,76.0,-99.9,30.09,NW,325,2.0,2.0,-999,-99.99,,,-99.99,,2013-06-09 18:33:00,
2013-06-09 14:42:00,76.0,-99.9,30.09,NW,325,2.0,2.0,-999,-99.99,,,-99.99,,2013-06-09 18:42:00,
2013-06-09 14:52:00,77.0,-99.9,30.09,NW,325,-999.0,-999.0,-999,-99.99,,,-99.99,,2013-06-09 18:52:00,
2013-06-09 15:03:00,77.0,-99.9,30.09,NNW,336,2.0,2.0,-999,-99.99,,,-99.99,,2013-06-09 19:03:00,
2013-06-09 15:13:00,76.0,-99.9,30.10,NNW,334,3.0,4.0,-999,-99.99,,,-99.99,,2013-06-09 19:13:00,
2013-06-09 15:22:00,77.0,-99.9,30.10,NW,325,3.0,3.0,-999,-99.99,,,-99.99,,2013-06-09 19:22:00,
2013-06-09 15:32:00,77.0,-99.9,30.10,NNW,331,2.0,3.0,-999,-99.99,,,-99.99,,2013-06-09 19:32:00,
2013-06-09 15:43:00,77.0,-99.9,30.10,NNW,330,2.0,2.0,-999,-99.99,,,-99.99,,2013-06-09 19:43:00,
2013-06-09 15:52:00,77.0,-99.9,30.10,NNE,13,6.0,7.0,-999,-99.99,,,-99.99,,2013-06-09 19:52:00,
2013-06-09 16:03:00,78.0,-99.9,30.11,NNE,16,6.0,7.0,-999,-99.99,,,-99.99,,2013-06-09 20:03:00,
2013-06-09 16:12:00,77.0,-99.9,30.11,North,6,5.0,7.0,-999,-99.99,,,-99.99,,2013-06-09 20:12:00,
2013-06-09 16:22:00,76.0,-99.9,30.10,North,10,6.0,7.0,-999,-99.99,,,-99.99,,2013-06-09 20:22:00,
2013-06-09 16:32:00,78.0,-99.9,30.10,NNE,18,7.0,9.0,-999,-99.99,,,-99.99,,2013-06-09 20:32:00,
2013-06-09 16:42:00,80.0,-99.9,30.10,NE,39,5.0,11.0,-999,-99.99,,,-99.99,,2013-06-09 20:42:00,
2013-06-09 16:52:00,79.0,-99.9,30.10,NNE,25,6.0,8.0,-999,-99.99,,,-99.99,,2013-06-09 20:52:00,
2013-06-09 17:03:00,80.0,-99.9,30.10,NNE,25,5.0,7.0,-999,-99.99,,,-99.99,,2013-06-09 21:03:00,
2013-06-09 17:12:00,82.0,-99.9,30.10,NE,36,7.0,9.0,-999,-99.99,,,-99.99,,2013-06-09 21:12:00,
2013-06-09 17:22:00,82.0,-99.9,30.10,NE,46,9.0,11.0,-999,-99.99,,,-99.99,,2013-06-09 21:22:00,
2013-06-09 17:33:00,82.0,-99.9,30.10,NE,44,9.0,12.0,-999,-99.99,,,-99.99,,2013-06-09 21:33:00,
2013-06-09 17:44:00,83.0,-99.9,30.10,NE,50,9.0,12.0,-999,-99.99,,,-99.99,,2013-06-09 21:44:00,
2013-06-09 17:53:00,82.0,-99.9,30.10,NE,43,8.0,13.0,-999,-99.99,,,-99.99,,2013-06-09 21:53:00,
2013-06-09 18:02:00,82.0,-99.9,30.10,NE,48,10.0,13.0,-999,-99.99,,,-99.99,,2013-06-09 22:02:00,
2013-06-09 18:13:00,82.0,-99.9,30.10,NE,42,9.0,13.0,-999,-99.99,,,-99.99,,2013-06-09 22:13:00,
2013-06-09 18:23:00,82.0,-99.9,30.10,NE,36,11.0,13.0,-999,-99.99,,,-99.99,,2013-06-09 22:23:00,
2013-06-09 18:33:00,82.0,-99.9,30.09,NNE,33,11.0,13.0,-999,-99.99,,,-99.99,,2013-06-09 22:33:00,
2013-06-09 18:42:00,83.0,-99.9,30.09,NE,46,9.0,12.0,-999,-99.99,,,-99.99,,2013-06-09 22:42:00,
2013-06-09 18:52:00,84.0,-99.9,30.09,NE,38,9.0,12.0,-999,-99.99,,,-99.99,,2013-06-09 22:52:00,
2013-06-09 19:02:00,83.0,-99.9,30.09,NE,34,10.0,12.0,-999,-99.99,,,-99.99,,2013-06-09 23:02:00,
2013-06-09 19:12:00,83.0,-99.9,30.09,NE,46,9.0,12.0,-999,-99.99,,,-99.99,,2013-06-09 23:12:00,
2013-06-09 19:22:00,82.0,-99.9,30.08,NE,44,10.0,12.0,-999,-99.99,,,-99.99,,2013-06-09 23:22:00,
2013-06-09 19:32:00,83.0,-99.9,30.08,NE,44,10.0,13.0,-999,-99.99,,,-99.99,,2013-06-09 23:32:00,
2013-06-09 19:43:00,83.0,-99.9,30.08,NE,44,10.0,13.0,-999,-99.99,,,-99.99,,2013-06-09 23:43:00,
2013-06-09 19:52:00,83.0,-99.9,30.07,NE,44,11.0,14.0,-999,-99.99,,,-99.99,,2013-06-09 23:52:00,
2013-06-09 20:02:00,83.0,-99.9,30.07,NE,44,11.0,14.0,-999,-99.99,,,-99.99,,2013-06-10 00:02:00,
2013-06-09 20:13:00,83.0,-99.9,30.07,NE,44,11.0,14.0,-999,-99.99,,,-99.99,,2013-06-10 00:13:00,
2013-06-09 20:22:00,82.0,-99.9,30.07,NE,44,11.0,15.0,-999,-99.99,,,-99.99,,2013-06-10 00:22:00,
2013-06-09 20:32:00,82.0,-99.9,30.06,NE,45,10.0,15.0,-999,-99.99,,,-99.99,,2013-06-10 00:32:00,
2013-06-09 20:42:00,82.0,-99.9,30.06,NE,39,12.0,14.0,-999,-99.99,,,-99.99,,2013-06-10 00:42:00,
2013-06-09 20:52:00,82.0,-99.9,30.06,NE,42,11.0,14.0,-999,-99.99,,,-99.99,,2013-06-10 00:52:00,
2013-06-09 21:03:00,82.0,-99.9,30.06,NE,42,11.0,14.0,-999,-99.99,,,-99.99,,2013-06-10 01:03:00,
2013-06-09 21:12:00,82.0,-99.9,30.06,NE,43,10.0,13.0,-999,-99.99,,,-99.99,,2013-06-10 01:12:00,
2013-06-09 21:22:00,83.0,-99.9,30.06,NE,42,9.0,13.0,-999,-99.99,,,-99.99,,2013-06-10 01:22:00,
2013-06-09 21:32:00,82.0,-99.9,30.06,NE,46,11.0,14.0,-999,-99.99,,,-99.99,,2013-06-10 01:32:00,
2013-06-09 21:43:00,81.0,-99.9,30.06,NE,47,11.0,14.0,-999,-99.99,,,-99.99,,2013-06-10 01:43:00,
2013-06-09 21:52:00,81.0,-99.9,30.06,NE,38,12.0,15.0,-999,-99.99,,,-99.99,,2013-06-10 01:52:00,
2013-06-09 22:02:00,81.0,-99.9,30.06,NE,45,10.0,14.0,-999,-99.99,,,-99.99,,2013-06-10 02:02:00,
2013-06-09 22:12:00,81.0,-99.9,30.06,NE,47,10.0,12.0,-999,-99.99,,,-99.99,,2013-06-10 02:12:00,
2013-06-09 22:22:00,81.0,-99.9,30.06,NE,47,9.0,12.0,-999,-99.99,,,-99.99,,2013-06-10 02:22:00,
2013-06-09 22:32:00,80.0,-99.9,30.06,NE,49,11.0,13.0,-999,-99.99,,,-99.99,,2013-06-10 02:32:00,
2013-06-09 22:42:00,80.0,-99.9,30.06,NE,47,11.0,13.0,-999,-99.99,,,-99.99,,2013-06-10 02:42:00,
2013-06-09 22:52:00,80.0,-99.9,30.06,NE,41,10.0,14.0,-999,-99.99,,,-99.99,,2013-06-10 02:52:00,
2013-06-09 23:02:00,81.0,-99.9,30.05,NE,48,9.0,12.0,-999,-99.99,,,-99.99,,2013-06-10 03:02:00,
2013-06-09 23:12:00,81.0,-99.9,30.05,NE,48,9.0,12.0,-999,-99.99,,,-99.99,,2013-06-10 03:12:00,
2013-06-09 23:22:00,80.0,-99.9,30.05,NE,46,11.0,12.0,-999,-99.99,,,-99.99,,2013-06-10 03:22:00,
2013-06-09 23:33:00,79.0,-99.9,30.06,NE,46,10.0,13.0,-999,-99.99,,,-99.99,,2013-06-10 03:33:00,
2013-06-09 23:43:00,78.0,-99.9,30.06,NE,46,11.0,13.0,-999,-99.99,,,-99.99,,2013-06-10 03:43:00,
2013-06-09 23:53:00,78.0,-99.9,30.06,NE,47,10.0,13.0,-999,-99.99,,,-99.99,,2013-06-10 03:53:00,